Hortonville, Wisconsin
Current Conditions -  °F | °C
As of 5:45 AM on Monday 26 Jan 2015 (Local Time) from KATW Reporting Station
Overcast Overcast  
Wind Chill: 14°   Ceiling: 6500
Heat Index: 14°   Visibility: 10mi
Dew Point:   Wind: 3mph
Humidity: 79%   Direction: NA
Pressure: 29.94"   Gusts: NA
Location:  44.33°N, 88.64°W
Report Text: KATW 261145Z VRB03KT 10SM OVC065 M10/M13 A2994
Loading
Personal Weather Stations






























Interactive Weather Map New forecast layout! Learn more

10-Day Weather Forecast

Advertisements
Track Severe Weather on mobile